sensor_id;sensor_type;location;lat;lon;timestamp;temperature;humidity
11399;DHT22;5755;48.116;11.608;2023-03-14T00:01:44;10.60;92.90
11399;DHT22;5755;48.116;11.608;2023-03-14T00:04:33;10.50;93.10
11399;DHT22;5755;48.116;11.608;2023-03-14T00:07:00;10.40;93.50
11399;DHT22;5755;48.116;11.608;2023-03-14T00:09:27;10.40;93.60
11399;DHT22;5755;48.116;11.608;2023-03-14T00:12:01;10.50;93.80
11399;DHT22;5755;48.116;11.608;2023-03-14T00:14:31;10.50;94.00
11399;DHT22;5755;48.116;11.608;2023-03-14T00:17:12;10.50;93.90
11399;DHT22;5755;48.116;11.608;2023-03-14T00:19:39;10.60;94.10
11399;DHT22;5755;48.116;11.608;2023-03-14T00:22:06;10.80;93.30
11399;DHT22;5755;48.116;11.608;2023-03-14T00:24:35;10.90;93.40
11399;DHT22;5755;48.116;11.608;2023-03-14T00:27:02;10.80;93.20
11399;DHT22;5755;48.116;11.608;2023-03-14T00:29:31;10.80;93.20
11399;DHT22;5755;48.116;11.608;2023-03-14T00:32:01;10.70;93.20
11399;DHT22;5755;48.116;11.608;2023-03-14T00:34:28;10.80;93.30
11399;DHT22;5755;48.116;11.608;2023-03-14T00:36:56;10.80;93.30
11399;DHT22;5755;48.116;11.608;2023-03-14T00:39:22;10.80;93.20
11399;DHT22;5755;48.116;11.608;2023-03-14T00:41:49;10.70;93.20
11399;DHT22;5755;48.116;11.608;2023-03-14T00:44:16;10.60;93.70
11399;DHT22;5755;48.116;11.608;2023-03-14T00:46:45;10.60;93.60
11399;DHT22;5755;48.116;11.608;2023-03-14T00:49:12;10.60;93.70
11399;DHT22;5755;48.116;11.608;2023-03-14T00:51:39;10.60;93.80
11399;DHT22;5755;48.116;11.608;2023-03-14T00:54:06;10.60;93.60
11399;DHT22;5755;48.116;11.608;2023-03-14T00:56:33;10.70;93.70
11399;DHT22;5755;48.116;11.608;2023-03-14T00:58:59;10.70;93.70
11399;DHT22;5755;48.116;11.608;2023-03-14T01:01:26;10.80;93.60
11399;DHT22;5755;48.116;11.608;2023-03-14T01:03:55;10.80;93.50
11399;DHT22;5755;48.116;11.608;2023-03-14T01:06:24;10.90;93.20
11399;DHT22;5755;48.116;11.608;2023-03-14T01:08:52;11.00;93.60
11399;DHT22;5755;48.116;11.608;2023-03-14T01:11:21;10.90;93.60
11399;DHT22;5755;48.116;11.608;2023-03-14T01:13:49;10.90;94.10
11399;DHT22;5755;48.116;11.608;2023-03-14T01:16:18;10.90;94.80
11399;DHT22;5755;48.116;11.608;2023-03-14T01:19:02;10.80;95.10
11399;DHT22;5755;48.116;11.608;2023-03-14T01:21:37;10.70;95.90
11399;DHT22;5755;48.116;11.608;2023-03-14T01:24:06;10.60;96.50
11399;DHT22;5755;48.116;11.608;2023-03-14T01:26:36;10.50;97.40
11399;DHT22;5755;48.116;11.608;2023-03-14T01:29:05;10.40;98.30
11399;DHT22;5755;48.116;11.608;2023-03-14T01:31:34;10.30;99.30
11399;DHT22;5755;48.116;11.608;2023-03-14T01:34:04;10.30;99.70
11399;DHT22;5755;48.116;11.608;2023-03-14T01:36:30;10.20;99.90
11399;DHT22;5755;48.116;11.608;2023-03-14T01:38:57;10.10;99.90
11399;DHT22;5755;48.116;11.608;2023-03-14T01:41:26;10.00;99.90
11399;DHT22;5755;48.116;11.608;2023-03-14T01:43:53;10.00;99.90
11399;DHT22;5755;48.116;11.608;2023-03-14T01:46:29;10.00;99.90
11399;DHT22;5755;48.116;11.608;2023-03-14T01:49:04;10.00;99.90
11399;DHT22;5755;48.116;11.608;2023-03-14T01:51:37;9.90;99.90
11399;DHT22;5755;48.116;11.608;2023-03-14T01:54:10;9.90;99.90
11399;DHT22;5755;48.116;11.608;2023-03-14T01:56:40;9.90;99.90
11399;DHT22;5755;48.116;11.608;2023-03-14T01:59:10;9.90;99.90
11399;DHT22;5755;48.116;11.608;2023-03-14T02:01:41;9.90;99.90
11399;DHT22;5755;48.116;11.608;2023-03-14T02:04:11;9.90;99.90
11399;DHT22;5755;48.116;11.608;2023-03-14T02:06:46;9.80;99.90
11399;DHT22;5755;48.116;11.608;2023-03-14T02:09:14;9.80;99.90
11399;DHT22;5755;48.116;11.608;2023-03-14T02:11:42;9.80;99.90
11399;DHT22;5755;48.116;11.608;2023-03-14T02:14:17;9.90;99.90
11399;DHT22;5755;48.116;11.608;2023-03-14T02:16:46;9.90;99.90
11399;DHT22;5755;48.116;11.608;2023-03-14T02:19:17;9.90;99.90
11399;DHT22;5755;48.116;11.608;2023-03-14T02:21:51;9.90;99.90
11399;DHT22;5755;48.116;11.608;2023-03-14T02:24:24;9.80;99.90
11399;DHT22;5755;48.116;11.608;2023-03-14T02:27:11;9.70;99.90
11399;DHT22;5755;48.116;11.608;2023-03-14T02:29:43;9.70;99.90
11399;DHT22;5755;48.116;11.608;2023-03-14T02:32:13;9.60;99.90
11399;DHT22;5755;48.116;11.608;2023-03-14T02:34:42;9.50;99.90
11399;DHT22;5755;48.116;11.608;2023-03-14T02:37:10;9.50;99.90
11399;DHT22;5755;48.116;11.608;2023-03-14T02:39:41;9.40;99.90
11399;DHT22;5755;48.116;11.608;2023-03-14T02:42:12;9.40;99.90
11399;DHT22;5755;48.116;11.608;2023-03-14T02:44:48;9.30;99.90
11399;DHT22;5755;48.116;11.608;2023-03-14T02:47:16;9.30;99.90
11399;DHT22;5755;48.116;11.608;2023-03-14T02:49:46;9.30;99.90
11399;DHT22;5755;48.116;11.608;2023-03-14T02:52:14;9.30;99.90
11399;DHT22;5755;48.116;11.608;2023-03-14T02:54:41;9.40;99.90
11399;DHT22;5755;48.116;11.608;2023-03-14T02:57:07;9.40;99.90
11399;DHT22;5755;48.116;11.608;2023-03-14T02:59:36;9.40;99.90
11399;DHT22;5755;48.116;11.608;2023-03-14T03:02:03;9.40;99.90
11399;DHT22;5755;48.116;11.608;2023-03-14T03:04:29;9.40;99.90
11399;DHT22;5755;48.116;11.608;2023-03-14T03:06:56;9.30;99.90
11399;DHT22;5755;48.116;11.608;2023-03-14T03:09:23;9.30;99.90
11399;DHT22;5755;48.116;11.608;2023-03-14T03:11:51;9.30;99.90
11399;DHT22;5755;48.116;11.608;2023-03-14T03:14:19;9.30;99.90
11399;DHT22;5755;48.116;11.608;2023-03-14T03:16:47;9.30;99.90
11399;DHT22;5755;48.116;11.608;2023-03-14T03:19:15;9.20;99.90
11399;DHT22;5755;48.116;11.608;2023-03-14T03:21:43;9.20;99.90
11399;DHT22;5755;48.116;11.608;2023-03-14T03:24:10;9.20;99.90
11399;DHT22;5755;48.116;11.608;2023-03-14T03:26:37;9.20;99.90
11399;DHT22;5755;48.116;11.608;2023-03-14T03:29:04;9.20;99.90
11399;DHT22;5755;48.116;11.608;2023-03-14T03:31:31;9.10;99.90
11399;DHT22;5755;48.116;11.608;2023-03-14T03:33:59;9.10;99.90
11399;DHT22;5755;48.116;11.608;2023-03-14T03:36:27;9.00;99.90
11399;DHT22;5755;48.116;11.608;2023-03-14T03:38:54;9.00;99.90
11399;DHT22;5755;48.116;11.608;2023-03-14T03:41:20;8.90;99.90
11399;DHT22;5755;48.116;11.608;2023-03-14T03:43:47;8.90;99.90
11399;DHT22;5755;48.116;11.608;2023-03-14T03:46:14;8.90;99.90
11399;DHT22;5755;48.116;11.608;2023-03-14T03:48:41;8.90;99.90
11399;DHT22;5755;48.116;11.608;2023-03-14T03:51:13;8.80;99.90
11399;DHT22;5755;48.116;11.608;2023-03-14T03:53:40;8.80;99.90
11399;DHT22;5755;48.116;11.608;2023-03-14T03:56:08;8.80;99.90
11399;DHT22;5755;48.116;11.608;2023-03-14T03:58:35;8.70;99.90
11399;DHT22;5755;48.116;11.608;2023-03-14T04:01:05;8.70;99.90
11399;DHT22;5755;48.116;11.608;2023-03-14T04:03:32;8.70;99.90
11399;DHT22;5755;48.116;11.608;2023-03-14T04:06:00;8.70;99.90
11399;DHT22;5755;48.116;11.608;2023-03-14T04:08:29;8.70;99.90
11399;DHT22;5755;48.116;11.608;2023-03-14T04:10:56;8.80;99.90
11399;DHT22;5755;48.116;11.608;2023-03-14T04:13:23;8.80;99.90
11399;DHT22;5755;48.116;11.608;2023-03-14T04:15:50;8.80;99.90
11399;DHT22;5755;48.116;11.608;2023-03-14T04:18:18;8.80;99.90
11399;DHT22;5755;48.116;11.608;2023-03-14T04:20:44;8.80;99.90
11399;DHT22;5755;48.116;11.608;2023-03-14T04:23:12;8.70;99.90
11399;DHT22;5755;48.116;11.608;2023-03-14T04:25:40;8.60;99.90
11399;DHT22;5755;48.116;11.608;2023-03-14T04:28:07;8.70;99.90
11399;DHT22;5755;48.116;11.608;2023-03-14T04:30:34;8.70;99.90
11399;DHT22;5755;48.116;11.608;2023-03-14T04:33:01;8.70;99.90
11399;DHT22;5755;48.116;11.608;2023-03-14T04:35:30;8.70;99.90
11399;DHT22;5755;48.116;11.608;2023-03-14T04:37:57;8.60;99.90
11399;DHT22;5755;48.116;11.608;2023-03-14T04:40:24;8.60;99.90
11399;DHT22;5755;48.116;11.608;2023-03-14T04:42:53;8.60;99.90
11399;DHT22;5755;48.116;11.608;2023-03-14T04:45:20;8.60;99.90
11399;DHT22;5755;48.116;11.608;2023-03-14T04:47:47;8.60;99.90
11399;DHT22;5755;48.116;11.608;2023-03-14T04:50:14;8.60;99.90
11399;DHT22;5755;48.116;11.608;2023-03-14T04:52:41;8.60;99.40
11399;DHT22;5755;48.116;11.608;2023-03-14T04:55:08;8.60;99.50
11399;DHT22;5755;48.116;11.608;2023-03-14T04:57:35;8.60;99.10
11399;DHT22;5755;48.116;11.608;2023-03-14T05:00:05;8.50;99.30
11399;DHT22;5755;48.116;11.608;2023-03-14T05:02:33;8.50;99.50
11399;DHT22;5755;48.116;11.608;2023-03-14T05:05:00;8.60;99.40
11399;DHT22;5755;48.116;11.608;2023-03-14T05:07:27;8.50;99.30
11399;DHT22;5755;48.116;11.608;2023-03-14T05:09:54;8.50;99.30
11399;DHT22;5755;48.116;11.608;2023-03-14T05:12:21;8.50;99.20
11399;DHT22;5755;48.116;11.608;2023-03-14T05:14:49;8.60;99.20
11399;DHT22;5755;48.116;11.608;2023-03-14T05:17:17;8.50;99.30
11399;DHT22;5755;48.116;11.608;2023-03-14T05:19:45;8.50;99.20
11399;DHT22;5755;48.116;11.608;2023-03-14T05:22:12;8.50;99.10
11399;DHT22;5755;48.116;11.608;2023-03-14T05:24:39;8.50;99.10
11399;DHT22;5755;48.116;11.608;2023-03-14T05:27:06;8.50;99.30
11399;DHT22;5755;48.116;11.608;2023-03-14T05:29:32;8.50;99.30
11399;DHT22;5755;48.116;11.608;2023-03-14T05:31:59;8.40;99.20
11399;DHT22;5755;48.116;11.608;2023-03-14T05:34:28;8.50;99.50
11399;DHT22;5755;48.116;11.608;2023-03-14T05:36:55;8.40;99.40
11399;DHT22;5755;48.116;11.608;2023-03-14T05:39:23;8.40;99.50
11399;DHT22;5755;48.116;11.608;2023-03-14T05:41:50;8.40;99.40
11399;DHT22;5755;48.116;11.608;2023-03-14T05:44:16;8.40;99.10
11399;DHT22;5755;48.116;11.608;2023-03-14T05:46:43;8.50;99.00
11399;DHT22;5755;48.116;11.608;2023-03-14T05:49:11;8.50;99.00
11399;DHT22;5755;48.116;11.608;2023-03-14T05:51:39;8.50;99.00
11399;DHT22;5755;48.116;11.608;2023-03-14T05:54:07;8.50;99.10
11399;DHT22;5755;48.116;11.608;2023-03-14T05:56:34;8.50;98.70
11399;DHT22;5755;48.116;11.608;2023-03-14T05:59:00;8.50;98.80
11399;DHT22;5755;48.116;11.608;2023-03-14T06:01:31;8.50;98.70
11399;DHT22;5755;48.116;11.608;2023-03-14T06:03:58;8.50;98.70
11399;DHT22;5755;48.116;11.608;2023-03-14T06:06:25;8.50;98.80
11399;DHT22;5755;48.116;11.608;2023-03-14T06:11:57;8.40;99.30
11399;DHT22;5755;48.116;11.608;2023-03-14T06:14:24;8.50;99.10
11399;DHT22;5755;48.116;11.608;2023-03-14T06:16:51;8.60;98.90
11399;DHT22;5755;48.116;11.608;2023-03-14T06:19:18;8.50;98.90
11399;DHT22;5755;48.116;11.608;2023-03-14T06:21:45;8.60;99.10
11399;DHT22;5755;48.116;11.608;2023-03-14T06:24:14;8.70;98.70
11399;DHT22;5755;48.116;11.608;2023-03-14T06:26:41;8.70;98.50
11399;DHT22;5755;48.116;11.608;2023-03-14T06:29:10;8.70;98.60
11399;DHT22;5755;48.116;11.608;2023-03-14T06:31:40;8.60;98.40
11399;DHT22;5755;48.116;11.608;2023-03-14T06:34:07;8.70;98.50
11399;DHT22;5755;48.116;11.608;2023-03-14T06:36:34;8.70;98.70
11399;DHT22;5755;48.116;11.608;2023-03-14T06:39:00;8.80;98.50
11399;DHT22;5755;48.116;11.608;2023-03-14T06:41:29;8.90;98.30
11399;DHT22;5755;48.116;11.608;2023-03-14T06:43:57;8.90;98.10
11399;DHT22;5755;48.116;11.608;2023-03-14T06:46:24;9.10;98.20
11399;DHT22;5755;48.116;11.608;2023-03-14T06:48:51;9.20;97.80
11399;DHT22;5755;48.116;11.608;2023-03-14T06:51:18;9.40;97.70
11399;DHT22;5755;48.116;11.608;2023-03-14T06:53:46;9.50;97.70
11399;DHT22;5755;48.116;11.608;2023-03-14T06:56:14;9.60;96.70
11399;DHT22;5755;48.116;11.608;2023-03-14T06:58:42;9.50;97.30
11399;DHT22;5755;48.116;11.608;2023-03-14T07:01:20;9.50;97.10
11399;DHT22;5755;48.116;11.608;2023-03-14T07:03:49;9.40;97.00
11399;DHT22;5755;48.116;11.608;2023-03-14T07:09:44;9.40;97.40
11399;DHT22;5755;48.116;11.608;2023-03-14T07:12:50;9.30;97.00
11399;DHT22;5755;48.116;11.608;2023-03-14T07:15:33;9.20;97.60
11399;DHT22;5755;48.116;11.608;2023-03-14T07:18:14;9.10;97.90
11399;DHT22;5755;48.116;11.608;2023-03-14T07:21:04;9.20;97.80
11399;DHT22;5755;48.116;11.608;2023-03-14T07:23:48;9.20;97.90
11399;DHT22;5755;48.116;11.608;2023-03-14T07:26:16;9.20;98.10
11399;DHT22;5755;48.116;11.608;2023-03-14T07:35:50;9.10;98.20
11399;DHT22;5755;48.116;11.608;2023-03-14T07:38:31;9.30;97.80
11399;DHT22;5755;48.116;11.608;2023-03-14T07:40:59;9.30;97.50
11399;DHT22;5755;48.116;11.608;2023-03-14T07:47:02;9.40;97.80
11399;DHT22;5755;48.116;11.608;2023-03-14T08:17:05;10.30;91.10
11399;DHT22;5755;48.116;11.608;2023-03-14T08:30:22;10.50;90.40
11399;DHT22;5755;48.116;11.608;2023-03-14T08:33:03;10.50;89.80
11399;DHT22;5755;48.116;11.608;2023-03-14T09:23:36;10.80;84.30
11399;DHT22;5755;48.116;11.608;2023-03-14T09:26:17;10.90;86.60
11399;DHT22;5755;48.116;11.608;2023-03-14T09:28:45;10.90;85.00
11399;DHT22;5755;48.116;11.608;2023-03-14T09:31:13;11.10;81.70
11399;DHT22;5755;48.116;11.608;2023-03-14T09:33:43;11.10;81.50
11399;DHT22;5755;48.116;11.608;2023-03-14T09:36:24;11.00;80.50
11399;DHT22;5755;48.116;11.608;2023-03-14T09:39:10;10.90;81.80
11399;DHT22;5755;48.116;11.608;2023-03-14T09:41:52;10.90;82.40
11399;DHT22;5755;48.116;11.608;2023-03-14T09:45:14;10.80;82.90
11399;DHT22;5755;48.116;11.608;2023-03-14T09:47:41;11.00;81.80
11399;DHT22;5755;48.116;11.608;2023-03-14T09:50:26;11.00;83.10
11399;DHT22;5755;48.116;11.608;2023-03-14T09:53:36;11.00;81.50
11399;DHT22;5755;48.116;11.608;2023-03-14T09:56:24;11.00;82.10
11399;DHT22;5755;48.116;11.608;2023-03-14T09:59:29;11.00;83.10
11399;DHT22;5755;48.116;11.608;2023-03-14T10:05:00;11.10;81.10
11399;DHT22;5755;48.116;11.608;2023-03-14T10:07:42;11.10;83.00
11399;DHT22;5755;48.116;11.608;2023-03-14T10:27:18;11.70;72.30
11399;DHT22;5755;48.116;11.608;2023-03-14T10:30:40;11.90;67.30
11399;DHT22;5755;48.116;11.608;2023-03-14T10:33:29;12.60;53.80
11399;DHT22;5755;48.116;11.608;2023-03-14T10:36:20;13.70;44.70
11399;DHT22;5755;48.116;11.608;2023-03-14T10:39:40;14.40;37.50
11399;DHT22;5755;48.116;11.608;2023-03-14T10:42:18;14.40;35.00
11399;DHT22;5755;48.116;11.608;2023-03-14T10:45:01;14.50;32.70
11399;DHT22;5755;48.116;11.608;2023-03-14T10:47:48;14.50;32.80
11399;DHT22;5755;48.116;11.608;2023-03-14T10:50:30;14.80;32.20
11399;DHT22;5755;48.116;11.608;2023-03-14T10:53:16;15.20;29.70
11399;DHT22;5755;48.116;11.608;2023-03-14T10:56:23;15.10;29.60
11399;DHT22;5755;48.116;11.608;2023-03-14T10:59:13;14.70;29.20
11399;DHT22;5755;48.116;11.608;2023-03-14T11:02:41;14.40;32.70
11399;DHT22;5755;48.116;11.608;2023-03-14T11:05:29;13.90;33.50
11399;DHT22;5755;48.116;11.608;2023-03-14T11:11:14;13.20;34.50
11399;DHT22;5755;48.116;11.608;2023-03-14T11:18:36;13.20;37.50
11399;DHT22;5755;48.116;11.608;2023-03-14T13:41:15;12.70;38.30
11399;DHT22;5755;48.116;11.608;2023-03-14T13:44:02;12.60;39.10
11399;DHT22;5755;48.116;11.608;2023-03-14T13:46:30;12.20;42.30
11399;DHT22;5755;48.116;11.608;2023-03-14T13:49:04;12.00;44.20
11399;DHT22;5755;48.116;11.608;2023-03-14T13:51:47;11.80;48.40
11399;DHT22;5755;48.116;11.608;2023-03-14T13:54:56;11.60;48.60
11399;DHT22;5755;48.116;11.608;2023-03-14T13:57:47;11.30;53.40
11399;DHT22;5755;48.116;11.608;2023-03-14T14:00:35;11.00;67.30
11399;DHT22;5755;48.116;11.608;2023-03-14T14:03:03;10.80;74.00
11399;DHT22;5755;48.116;11.608;2023-03-14T14:20:00;9.80;92.20
11399;DHT22;5755;48.116;11.608;2023-03-14T14:22:41;9.60;93.10
11399;DHT22;5755;48.116;11.608;2023-03-14T14:45:01;8.50;96.80
11399;DHT22;5755;48.116;11.608;2023-03-14T14:48:08;8.40;96.70
11399;DHT22;5755;48.116;11.608;2023-03-14T14:51:10;8.30;96.70
11399;DHT22;5755;48.116;11.608;2023-03-14T14:54:14;8.30;96.80
11399;DHT22;5755;48.116;11.608;2023-03-14T14:57:20;8.20;95.70
11399;DHT22;5755;48.116;11.608;2023-03-14T15:00:27;8.20;95.70
11399;DHT22;5755;48.116;11.608;2023-03-14T15:03:15;8.30;96.00
11399;DHT22;5755;48.116;11.608;2023-03-14T15:06:08;8.30;96.10
11399;DHT22;5755;48.116;11.608;2023-03-14T15:09:13;8.30;96.80
11399;DHT22;5755;48.116;11.608;2023-03-14T15:11:55;8.20;96.30
11399;DHT22;5755;48.116;11.608;2023-03-14T15:15:00;8.30;95.80
11399;DHT22;5755;48.116;11.608;2023-03-14T15:43:18;8.40;95.80
11399;DHT22;5755;48.116;11.608;2023-03-14T15:45:58;8.20;96.40
11399;DHT22;5755;48.116;11.608;2023-03-14T15:48:25;8.00;97.30
11399;DHT22;5755;48.116;11.608;2023-03-14T15:51:06;8.00;98.00
11399;DHT22;5755;48.116;11.608;2023-03-14T15:53:47;7.90;98.10
11399;DHT22;5755;48.116;11.608;2023-03-14T15:56:30;7.70;98.50
11399;DHT22;5755;48.116;11.608;2023-03-14T15:58:57;7.50;97.70
11399;DHT22;5755;48.116;11.608;2023-03-14T16:01:24;7.40;96.50
11399;DHT22;5755;48.116;11.608;2023-03-14T16:03:53;7.20;97.10
11399;DHT22;5755;48.116;11.608;2023-03-14T16:06:33;7.00;95.50
11399;DHT22;5755;48.116;11.608;2023-03-14T16:09:21;6.90;95.70
11399;DHT22;5755;48.116;11.608;2023-03-14T16:11:51;6.80;93.80
11399;DHT22;5755;48.116;11.608;2023-03-14T16:14:32;6.80;93.80
11399;DHT22;5755;48.116;11.608;2023-03-14T16:16:59;6.90;93.30
11399;DHT22;5755;48.116;11.608;2023-03-14T16:19:26;7.00;93.10
11399;DHT22;5755;48.116;11.608;2023-03-14T16:24:32;7.30;92.20
11399;DHT22;5755;48.116;11.608;2023-03-14T16:27:01;7.30;91.60
11399;DHT22;5755;48.116;11.608;2023-03-14T16:29:41;7.40;91.90
11399;DHT22;5755;48.116;11.608;2023-03-14T16:40:21;7.60;84.80
11399;DHT22;5755;48.116;11.608;2023-03-14T16:48:50;7.50;72.30
11399;DHT22;5755;48.116;11.608;2023-03-14T17:13:45;7.40;77.60
11399;DHT22;5755;48.116;11.608;2023-03-14T17:16:11;7.40;72.30
11399;DHT22;5755;48.116;11.608;2023-03-14T17:18:39;7.30;75.70
11399;DHT22;5755;48.116;11.608;2023-03-14T17:21:06;7.30;72.60
11399;DHT22;5755;48.116;11.608;2023-03-14T17:23:34;7.30;72.10
11399;DHT22;5755;48.116;11.608;2023-03-14T17:26:01;7.30;68.80
11399;DHT22;5755;48.116;11.608;2023-03-14T17:28:28;7.30;67.00
11399;DHT22;5755;48.116;11.608;2023-03-14T17:31:06;7.30;64.80
11399;DHT22;5755;48.116;11.608;2023-03-14T17:33:37;7.20;66.00
11399;DHT22;5755;48.116;11.608;2023-03-14T17:36:19;7.20;58.10
11399;DHT22;5755;48.116;11.608;2023-03-14T17:39:08;7.10;59.10
11399;DHT22;5755;48.116;11.608;2023-03-14T17:41:49;7.00;59.60
11399;DHT22;5755;48.116;11.608;2023-03-14T17:44:22;7.00;57.70
11399;DHT22;5755;48.116;11.608;2023-03-14T17:56:14;6.70;58.00
11399;DHT22;5755;48.116;11.608;2023-03-14T17:58:56;6.70;55.70
11399;DHT22;5755;48.116;11.608;2023-03-14T18:01:23;6.60;54.80
11399;DHT22;5755;48.116;11.608;2023-03-14T18:03:50;6.60;55.40
11399;DHT22;5755;48.116;11.608;2023-03-14T18:06:22;6.60;52.70
11399;DHT22;5755;48.116;11.608;2023-03-14T18:08:55;6.60;52.60
11399;DHT22;5755;48.116;11.608;2023-03-14T18:11:24;6.60;52.20
11399;DHT22;5755;48.116;11.608;2023-03-14T18:13:52;6.60;52.30
11399;DHT22;5755;48.116;11.608;2023-03-14T18:16:34;6.50;53.90
11399;DHT22;5755;48.116;11.608;2023-03-14T18:19:15;6.50;54.60
11399;DHT22;5755;48.116;11.608;2023-03-14T18:21:56;6.50;53.00
11399;DHT22;5755;48.116;11.608;2023-03-14T18:24:23;6.50;54.80
11399;DHT22;5755;48.116;11.608;2023-03-14T18:27:06;6.40;56.00
11399;DHT22;5755;48.116;11.608;2023-03-14T18:29:47;6.30;56.80
11399;DHT22;5755;48.116;11.608;2023-03-14T18:32:15;6.40;56.90
11399;DHT22;5755;48.116;11.608;2023-03-14T18:34:58;6.40;57.10
11399;DHT22;5755;48.116;11.608;2023-03-14T18:37:39;6.30;59.70
11399;DHT22;5755;48.116;11.608;2023-03-14T18:40:08;6.30;59.20
11399;DHT22;5755;48.116;11.608;2023-03-14T18:42:57;6.40;58.60
11399;DHT22;5755;48.116;11.608;2023-03-14T18:45:37;6.30;59.80
11399;DHT22;5755;48.116;11.608;2023-03-14T18:48:06;6.20;63.30
11399;DHT22;5755;48.116;11.608;2023-03-14T18:50:49;6.10;63.90
11399;DHT22;5755;48.116;11.608;2023-03-14T18:53:55;6.20;64.00
11399;DHT22;5755;48.116;11.608;2023-03-14T18:56:37;6.10;65.40
11399;DHT22;5755;48.116;11.608;2023-03-14T18:59:19;6.00;70.80
11399;DHT22;5755;48.116;11.608;2023-03-14T19:02:11;6.00;70.70
11399;DHT22;5755;48.116;11.608;2023-03-14T19:04:38;6.00;75.10
11399;DHT22;5755;48.116;11.608;2023-03-14T19:07:06;6.00;75.00
11399;DHT22;5755;48.116;11.608;2023-03-14T19:09:33;6.00;76.20
11399;DHT22;5755;48.116;11.608;2023-03-14T19:12:14;5.90;76.50
11399;DHT22;5755;48.116;11.608;2023-03-14T19:15:03;6.00;77.00
11399;DHT22;5755;48.116;11.608;2023-03-14T19:18:07;6.10;77.10
11399;DHT22;5755;48.116;11.608;2023-03-14T19:20:35;6.20;77.10
11399;DHT22;5755;48.116;11.608;2023-03-14T19:23:02;6.20;76.10
11399;DHT22;5755;48.116;11.608;2023-03-14T19:25:29;6.30;71.20
11399;DHT22;5755;48.116;11.608;2023-03-14T19:27:57;6.30;71.20
11399;DHT22;5755;48.116;11.608;2023-03-14T19:30:26;6.50;71.30
11399;DHT22;5755;48.116;11.608;2023-03-14T19:33:14;6.50;71.30
11399;DHT22;5755;48.116;11.608;2023-03-14T19:35:42;6.60;71.50
11399;DHT22;5755;48.116;11.608;2023-03-14T19:38:09;6.60;71.40
11399;DHT22;5755;48.116;11.608;2023-03-14T19:40:55;6.60;71.40
11399;DHT22;5755;48.116;11.608;2023-03-14T19:43:36;6.60;70.80
11399;DHT22;5755;48.116;11.608;2023-03-14T19:46:04;6.60;71.50
11399;DHT22;5755;48.116;11.608;2023-03-14T19:48:47;6.60;71.40
11399;DHT22;5755;48.116;11.608;2023-03-14T19:51:15;6.60;71.40
11399;DHT22;5755;48.116;11.608;2023-03-14T19:53:43;6.60;71.40
11399;DHT22;5755;48.116;11.608;2023-03-14T19:56:42;6.60;71.40
11399;DHT22;5755;48.116;11.608;2023-03-14T19:59:29;6.60;71.40
11399;DHT22;5755;48.116;11.608;2023-03-14T20:02:13;6.60;71.50
11399;DHT22;5755;48.116;11.608;2023-03-14T20:04:54;6.60;74.10
11399;DHT22;5755;48.116;11.608;2023-03-14T20:07:35;6.60;75.50
11399;DHT22;5755;48.116;11.608;2023-03-14T20:10:03;6.60;75.60
11399;DHT22;5755;48.116;11.608;2023-03-14T20:12:30;6.60;76.10
11399;DHT22;5755;48.116;11.608;2023-03-14T20:15:12;6.60;77.40
11399;DHT22;5755;48.116;11.608;2023-03-14T20:18:00;6.50;77.60
11399;DHT22;5755;48.116;11.608;2023-03-14T20:20:41;6.50;79.80
11399;DHT22;5755;48.116;11.608;2023-03-14T20:23:09;6.60;79.50
11399;DHT22;5755;48.116;11.608;2023-03-14T20:25:37;6.60;80.20
11399;DHT22;5755;48.116;11.608;2023-03-14T20:28:04;6.60;79.40
11399;DHT22;5755;48.116;11.608;2023-03-14T20:30:31;6.70;79.50
11399;DHT22;5755;48.116;11.608;2023-03-14T20:33:00;6.80;78.60
11399;DHT22;5755;48.116;11.608;2023-03-14T20:35:41;6.80;79.30
11399;DHT22;5755;48.116;11.608;2023-03-14T20:38:24;6.90;78.10
11399;DHT22;5755;48.116;11.608;2023-03-14T20:40:51;6.90;77.60
11399;DHT22;5755;48.116;11.608;2023-03-14T20:43:19;6.80;78.70
11399;DHT22;5755;48.116;11.608;2023-03-14T20:45:51;6.80;79.50
11399;DHT22;5755;48.116;11.608;2023-03-14T20:48:21;6.80;81.60
11399;DHT22;5755;48.116;11.608;2023-03-14T20:50:57;6.80;86.00
11399;DHT22;5755;48.116;11.608;2023-03-14T20:53:24;6.70;90.00
11399;DHT22;5755;48.116;11.608;2023-03-14T20:55:54;6.60;91.50
11399;DHT22;5755;48.116;11.608;2023-03-14T20:58:21;6.20;92.60
11399;DHT22;5755;48.116;11.608;2023-03-14T21:00:50;6.00;93.90
11399;DHT22;5755;48.116;11.608;2023-03-14T21:03:20;5.80;95.00
11399;DHT22;5755;48.116;11.608;2023-03-14T21:05:47;5.70;95.20
11399;DHT22;5755;48.116;11.608;2023-03-14T21:08:16;5.60;95.60
11399;DHT22;5755;48.116;11.608;2023-03-14T21:10:45;5.50;96.40
11399;DHT22;5755;48.116;11.608;2023-03-14T21:13:13;5.40;96.70
11399;DHT22;5755;48.116;11.608;2023-03-14T21:15:41;5.40;96.70
11399;DHT22;5755;48.116;11.608;2023-03-14T21:18:08;5.30;96.80
11399;DHT22;5755;48.116;11.608;2023-03-14T21:20:38;5.20;97.20
11399;DHT22;5755;48.116;11.608;2023-03-14T21:23:06;5.30;97.10
11399;DHT22;5755;48.116;11.608;2023-03-14T21:25:34;5.20;97.10
11399;DHT22;5755;48.116;11.608;2023-03-14T21:28:01;5.20;97.20
11399;DHT22;5755;48.116;11.608;2023-03-14T21:30:29;5.20;97.10
11399;DHT22;5755;48.116;11.608;2023-03-14T21:32:56;5.20;97.20
11399;DHT22;5755;48.116;11.608;2023-03-14T21:35:23;5.10;97.00
11399;DHT22;5755;48.116;11.608;2023-03-14T21:37:51;5.00;97.20
11399;DHT22;5755;48.116;11.608;2023-03-14T21:40:18;5.00;97.10
11399;DHT22;5755;48.116;11.608;2023-03-14T21:42:45;5.00;97.20
11399;DHT22;5755;48.116;11.608;2023-03-14T21:45:14;5.00;97.20
11399;DHT22;5755;48.116;11.608;2023-03-14T21:47:56;5.00;96.90
11399;DHT22;5755;48.116;11.608;2023-03-14T21:50:26;4.90;97.00
11399;DHT22;5755;48.116;11.608;2023-03-14T21:52:55;4.90;96.80
11399;DHT22;5755;48.116;11.608;2023-03-14T21:55:22;4.80;96.70
11399;DHT22;5755;48.116;11.608;2023-03-14T21:57:51;4.90;96.40
11399;DHT22;5755;48.116;11.608;2023-03-14T22:00:19;4.80;96.30
11399;DHT22;5755;48.116;11.608;2023-03-14T22:02:47;4.80;96.00
11399;DHT22;5755;48.116;11.608;2023-03-14T22:05:18;4.80;95.90
11399;DHT22;5755;48.116;11.608;2023-03-14T22:07:46;4.80;95.90
11399;DHT22;5755;48.116;11.608;2023-03-14T22:10:19;4.80;95.40
11399;DHT22;5755;48.116;11.608;2023-03-14T22:12:46;4.70;95.30
11399;DHT22;5755;48.116;11.608;2023-03-14T22:15:15;4.80;95.00
11399;DHT22;5755;48.116;11.608;2023-03-14T22:17:42;4.80;95.00
11399;DHT22;5755;48.116;11.608;2023-03-14T22:20:10;4.70;95.00
11399;DHT22;5755;48.116;11.608;2023-03-14T22:22:38;4.70;95.00
11399;DHT22;5755;48.116;11.608;2023-03-14T22:25:06;4.60;95.00
11399;DHT22;5755;48.116;11.608;2023-03-14T22:27:34;4.60;95.00
11399;DHT22;5755;48.116;11.608;2023-03-14T22:30:02;4.60;95.00
11399;DHT22;5755;48.116;11.608;2023-03-14T22:32:29;4.60;95.00
11399;DHT22;5755;48.116;11.608;2023-03-14T22:34:56;4.60;95.00
11399;DHT22;5755;48.116;11.608;2023-03-14T22:37:22;4.70;94.90
11399;DHT22;5755;48.116;11.608;2023-03-14T22:39:50;4.70;94.60
11399;DHT22;5755;48.116;11.608;2023-03-14T22:42:17;4.70;95.00